Time;durP1;ratioP1;P1;durP2;ratioP2;P2;SDS_P1;SDS_P2;PMS_P1;PMS_P2;Temp;Humidity;BMP_temperature;BMP_pressure;BME280_temperature;BME280_humidity;BME280_pressure;Samples;Min_cycle;Max_cycle;Signal;HPM_P1;HPM_P2
2020/12/11 00:02:07;;;;;;;20.48;11.77;;;;;;;8.35;89.14;98018.78;4438457;32;20456;-73
2020/12/11 00:04:33;;;;;;;18.62;12.00;;;;;;;8.29;88.90;98007.50;4442211;32;20081;-72
2020/12/11 00:06:59;;;;;;;17.27;10.73;;;;;;;8.38;88.64;98001.75;4443843;32;20548;-72
2020/12/11 00:09:25;;;;;;;17.55;10.60;;;;;;;8.30;88.70;97997.81;4443524;32;20064;-73
2020/12/11 00:11:51;;;;;;;18.70;10.55;;;;;;;8.25;88.59;97980.94;4446740;32;20342;-75
2020/12/11 00:14:18;;;;;;;18.30;11.10;;;;;;;8.24;89.65;97970.97;4439235;32;20077;-72
2020/12/11 00:16:43;;;;;;;20.83;11.02;;;;;;;7.99;90.31;97956.41;4440436;32;20081;-74
2020/12/11 00:19:09;;;;;;;19.37;11.20;;;;;;;8.18;90.22;97954.88;4442878;32;20056;-75
2020/12/11 00:21:44;;;;;;;18.73;12.23;;;;;;;8.22;89.66;97937.06;4441566;32;20037;-74
2020/12/11 00:24:11;;;;;;;19.52;11.43;;;;;;;8.17;89.80;97942.09;4440179;32;20042;-73
2020/12/11 00:26:37;;;;;;;18.35;11.05;;;;;;;8.09;90.08;97943.00;4441348;32;20133;-72
2020/12/11 00:29:03;;;;;;;20.17;11.93;;;;;;;8.28;90.10;97935.91;4442773;32;20049;-72
2020/12/11 00:31:29;;;;;;;22.98;11.73;;;;;;;8.14;90.02;97931.12;4441270;32;20078;-74
2020/12/11 00:33:55;;;;;;;18.92;10.98;;;;;;;8.30;89.19;97930.59;4445344;32;20119;-74
2020/12/11 00:36:22;;;;;;;20.23;11.35;;;;;;;8.19;89.64;97928.37;4443742;32;20041;-73
2020/12/11 00:38:48;;;;;;;20.98;11.50;;;;;;;8.09;90.24;97924.19;4443034;32;20073;-73
2020/12/11 00:41:14;;;;;;;18.55;11.52;;;;;;;8.27;89.80;97922.38;4444004;32;20017;-74
2020/12/11 00:43:40;;;;;;;17.90;9.95;;;;;;;8.41;89.53;97921.56;4442464;32;20095;-73
2020/12/11 00:46:06;;;;;;;18.30;10.57;;;;;;;8.39;89.45;97907.25;4426924;32;20081;-74
2020/12/11 00:48:32;;;;;;;15.85;10.10;;;;;;;8.43;88.98;97905.03;4441418;32;20037;-74
2020/12/11 00:50:57;;;;;;;17.15;10.43;;;;;;;8.38;88.78;97902.91;4438421;32;20592;-74
2020/12/11 00:53:23;;;;;;;16.67;9.98;;;;;;;8.41;89.08;97891.50;4442882;32;20435;-73
2020/12/11 00:55:49;;;;;;;16.67;9.45;;;;;;;8.49;88.53;97887.00;4442313;32;20060;-75
2020/12/11 00:58:15;;;;;;;15.38;9.73;;;;;;;8.40;87.55;97887.16;4441256;32;21130;-74
2020/12/11 01:00:41;;;;;;;15.40;9.48;;;;;;;8.58;87.83;97860.84;4443651;32;20723;-75
2020/12/11 01:03:06;;;;;;;15.45;9.73;;;;;;;8.52;87.50;97866.37;4441557;32;20045;-73
2020/12/11 01:05:35;;;;;;;16.45;10.05;;;;;;;8.48;88.04;97853.84;4443252;32;20063;-74
2020/12/11 01:08:02;;;;;;;16.23;9.63;;;;;;;8.56;87.96;97847.31;4444271;32;20038;-75
2020/12/11 01:10:27;;;;;;;14.57;9.07;;;;;;;8.66;88.16;97845.91;4440398;32;20085;-75
2020/12/11 01:12:53;;;;;;;16.17;9.60;;;;;;;8.69;87.06;97846.94;4442573;32;20041;-76
2020/12/11 01:15:19;;;;;;;16.20;9.40;;;;;;;8.75;87.03;97848.53;4441453;32;20090;-73
2020/12/11 01:17:45;;;;;;;14.98;8.68;;;;;;;8.48;87.74;97837.81;4444385;32;20072;-73
2020/12/11 01:20:10;;;;;;;17.77;9.82;;;;;;;8.53;87.96;97839.91;4443776;32;20067;-76
2020/12/11 01:22:36;;;;;;;16.40;8.73;;;;;;;8.69;88.21;97825.28;4441059;32;20103;-73
2020/12/11 01:25:02;;;;;;;14.98;9.50;;;;;;;8.68;87.34;97832.16;4442334;32;20468;-77
2020/12/11 01:27:27;;;;;;;16.08;9.75;;;;;;;8.62;87.90;97822.16;4443570;32;20076;-74
2020/12/11 01:29:53;;;;;;;15.27;9.00;;;;;;;8.66;88.00;97820.69;4442845;32;20362;-73
2020/12/11 01:32:18;;;;;;;16.25;10.45;;;;;;;8.66;88.18;97803.88;4440773;32;20117;-75
2020/12/11 01:34:44;;;;;;;14.80;9.80;;;;;;;8.49;88.60;97802.94;4443032;32;20022;-75
2020/12/11 01:37:10;;;;;;;16.15;10.48;;;;;;;8.61;88.47;97807.38;4441444;32;20140;-73
2020/12/11 01:39:35;;;;;;;17.10;9.70;;;;;;;8.63;88.50;97802.06;4444742;32;20102;-74
2020/12/11 01:42:01;;;;;;;17.60;11.07;;;;;;;8.52;88.47;97795.56;4440832;32;20084;-75
2020/12/11 01:44:27;;;;;;;13.90;9.40;;;;;;;8.54;88.68;97793.81;4443416;32;20485;-73
2020/12/11 01:46:57;;;;;;;17.48;9.93;;;;;;;8.36;89.37;97796.94;4442434;32;20064;-73
2020/12/11 01:49:23;;;;;;;14.82;9.73;;;;;;;8.58;89.02;97791.56;4442387;32;20038;-76
2020/12/11 01:51:50;;;;;;;15.63;9.82;;;;;;;8.67;88.67;97787.78;4440410;32;20136;-73
2020/12/11 01:54:17;;;;;;;17.05;10.00;;;;;;;8.75;87.97;97780.50;4426677;32;20082;-75
2020/12/11 01:57:00;;;;;;;16.42;10.38;;;;;;;8.67;88.18;97780.16;4424147;32;20087;-76
2020/12/11 01:59:32;;;;;;;15.93;9.57;;;;;;;8.83;87.42;97775.94;4445245;32;20018;-73
2020/12/11 02:01:58;;;;;;;13.88;9.27;;;;;;;8.81;86.65;97770.84;4437392;32;20037;-73
2020/12/11 02:04:25;;;;;;;14.80;9.05;;;;;;;8.94;87.13;97774.00;4440561;32;20426;-75
2020/12/11 02:06:51;;;;;;;13.20;7.82;;;;;;;8.96;86.95;97771.47;4439549;32;20069;-74
2020/12/11 02:09:19;;;;;;;12.13;7.78;;;;;;;9.01;86.56;97773.56;4443839;32;20061;-77
2020/12/11 02:11:45;;;;;;;10.95;7.37;;;;;;;9.09;85.98;97769.03;4439791;32;20135;-73
2020/12/11 02:14:10;;;;;;;10.50;7.45;;;;;;;9.16;85.99;97768.56;4438874;32;20050;-73
2020/12/11 02:16:36;;;;;;;12.52;6.00;;;;;;;9.12;85.79;97770.84;4441580;32;20034;-74
2020/12/11 02:19:02;;;;;;;8.10;5.57;;;;;;;9.05;86.06;97750.88;4442439;32;20021;-73
2020/12/11 02:21:31;;;;;;;7.75;5.10;;;;;;;9.12;85.93;97754.00;4444987;32;20047;-74
2020/12/11 02:23:56;;;;;;;6.72;4.50;;;;;;;9.10;86.37;97748.12;4441657;32;20378;-74
2020/12/11 02:26:24;;;;;;;7.90;4.68;;;;;;;9.15;85.56;97750.19;4441936;32;20597;-75
2020/12/11 02:28:50;;;;;;;5.60;4.22;;;;;;;9.11;85.64;97758.06;4441506;32;20145;-74
2020/12/11 02:31:16;;;;;;;6.47;4.90;;;;;;;9.15;85.16;97755.03;4441589;32;20025;-75
2020/12/11 02:33:41;;;;;;;5.80;4.22;;;;;;;9.28;85.05;97739.28;4440394;32;20097;-75
2020/12/11 02:36:07;;;;;;;6.45;4.35;;;;;;;9.31;84.68;97735.50;4440937;32;20032;-76
2020/12/11 02:38:32;;;;;;;5.85;4.25;;;;;;;9.32;85.03;97733.44;4442796;32;20100;-75
2020/12/11 02:41:01;;;;;;;5.57;3.97;;;;;;;9.26;85.16;97727.81;4446243;32;20427;-76
2020/12/11 02:43:27;;;;;;;5.50;3.78;;;;;;;9.15;85.51;97724.94;4442506;32;20767;-75
2020/12/11 02:45:53;;;;;;;5.00;3.45;;;;;;;9.26;85.53;97727.81;4448416;32;20041;-73
2020/12/11 02:48:20;;;;;;;5.93;4.05;;;;;;;9.22;85.32;97718.09;4450030;32;20077;-74
2020/12/11 02:50:45;;;;;;;5.75;3.65;;;;;;;9.22;85.14;97737.72;4443206;32;20460;-75
2020/12/11 02:53:11;;;;;;;6.35;3.80;;;;;;;9.12;85.37;97736.41;4444681;32;20021;-75
2020/12/11 02:55:37;;;;;;;5.07;3.50;;;;;;;9.01;85.54;97728.69;4442903;32;20516;-76
2020/12/11 02:58:03;;;;;;;5.47;3.45;;;;;;;9.08;85.17;97727.44;4443687;32;20041;-74
2020/12/11 03:00:30;;;;;;;5.80;3.72;;;;;;;9.05;84.77;97717.25;4444018;32;20083;-76
2020/12/11 03:02:55;;;;;;;6.05;4.10;;;;;;;9.06;85.47;97727.19;4447373;32;20160;-73
2020/12/11 03:05:21;;;;;;;6.43;3.75;;;;;;;9.09;85.73;97731.78;4429508;32;20050;-75
2020/12/11 03:07:46;;;;;;;6.18;3.85;;;;;;;9.14;85.40;97726.19;4444942;32;20085;-73
2020/12/11 03:10:13;;;;;;;5.72;4.05;;;;;;;9.29;85.04;97717.59;4448737;32;20017;-73
2020/12/11 03:12:38;;;;;;;6.35;3.70;;;;;;;9.30;85.05;97717.09;4444240;32;20382;-75
2020/12/11 03:15:04;;;;;;;5.28;3.45;;;;;;;9.27;85.28;97718.09;4444920;32;20103;-73
2020/12/11 03:17:30;;;;;;;4.65;3.60;;;;;;;9.21;84.89;97711.69;4442228;32;20142;-73
2020/12/11 03:19:55;;;;;;;5.35;3.95;;;;;;;9.20;85.25;97698.94;4445001;32;20041;-73
2020/12/11 03:22:21;;;;;;;4.97;3.35;;;;;;;9.08;85.78;97688.94;4443192;32;20144;-75
2020/12/11 03:24:47;;;;;;;4.65;3.25;;;;;;;9.06;86.14;97690.72;4441186;32;20026;-74
2020/12/11 03:27:13;;;;;;;5.68;3.83;;;;;;;9.02;86.30;97688.12;4442694;32;20093;-75
2020/12/11 03:29:38;;;;;;;5.20;4.03;;;;;;;9.17;86.49;97683.13;4444234;32;20254;-75
2020/12/11 03:32:04;;;;;;;4.62;3.20;;;;;;;9.24;85.90;97687.50;4444074;32;20075;-73
2020/12/11 03:34:30;;;;;;;6.78;3.75;;;;;;;9.31;85.70;97676.56;4442915;32;20140;-74
2020/12/11 03:36:55;;;;;;;5.07;3.60;;;;;;;9.34;85.80;97677.59;4442936;32;20088;-74
2020/12/11 03:39:21;;;;;;;5.35;3.75;;;;;;;9.31;85.17;97665.34;4443885;32;20041;-74
2020/12/11 03:41:54;;;;;;;5.25;3.87;;;;;;;9.43;85.90;97666.16;4437782;32;20082;-72
2020/12/11 03:44:20;;;;;;;7.03;4.70;;;;;;;9.56;85.74;97653.19;4443645;32;20077;-76
2020/12/11 03:46:45;;;;;;;5.40;3.80;;;;;;;9.60;85.18;97650.88;4443478;32;20056;-75
2020/12/11 03:49:12;;;;;;;5.95;3.80;;;;;;;9.61;84.86;97648.84;4439520;32;20518;-74
2020/12/11 03:51:38;;;;;;;5.35;4.07;;;;;;;9.64;84.84;97650.66;4441326;32;20077;-73
2020/12/11 03:54:04;;;;;;;5.70;4.00;;;;;;;9.63;85.09;97652.69;4440164;32;20072;-75
2020/12/11 03:56:30;;;;;;;7.15;4.35;;;;;;;9.62;84.92;97651.16;4441308;32;20029;-74
2020/12/11 03:58:55;;;;;;;9.30;5.12;;;;;;;9.63;85.33;97649.09;4440169;32;20466;-76
2020/12/11 04:01:22;;;;;;;5.68;4.28;;;;;;;9.64;85.16;97640.16;4438383;32;20395;-73
2020/12/11 04:03:47;;;;;;;6.00;3.97;;;;;;;9.83;85.22;97643.28;4440672;32;20108;-74
2020/12/11 04:06:15;;;;;;;5.78;4.05;;;;;;;9.71;84.26;97638.91;4446864;32;20382;-75
2020/12/11 04:08:42;;;;;;;13.68;5.82;;;;;;;9.81;84.68;97632.56;4440736;32;20021;-75
2020/12/11 04:11:10;;;;;;;9.82;5.57;;;;;;;9.80;84.82;97633.84;4437868;32;20108;-73
2020/12/11 04:13:37;;;;;;;6.70;4.50;;;;;;;9.85;84.85;97623.91;4442701;32;20099;-74
2020/12/11 04:16:03;;;;;;;6.90;4.32;;;;;;;9.78;83.96;97613.16;4427938;32;20417;-73
2020/12/11 04:18:29;;;;;;;7.70;5.10;;;;;;;9.83;84.38;97630.03;4444300;32;20902;-74
2020/12/11 04:20:56;;;;;;;7.55;5.37;;;;;;;9.71;84.62;97608.03;4441517;32;20082;-74
2020/12/11 04:23:23;;;;;;;7.35;4.85;;;;;;;9.67;84.43;97610.34;4440389;32;20434;-75
2020/12/11 04:25:49;;;;;;;6.85;4.57;;;;;;;9.69;84.65;97605.75;4444524;32;20539;-74
2020/12/11 04:28:15;;;;;;;5.82;4.37;;;;;;;9.59;84.76;97612.88;4444042;32;20500;-73
2020/12/11 04:30:40;;;;;;;8.45;5.03;;;;;;;9.56;85.16;97599.84;4444702;32;20069;-75
2020/12/11 04:33:07;;;;;;;8.88;5.60;;;;;;;9.56;85.32;97613.09;4442757;32;20113;-73
2020/12/11 04:35:33;;;;;;;8.40;5.37;;;;;;;9.49;85.60;97608.00;4441491;32;20042;-77
2020/12/11 04:37:59;;;;;;;8.65;5.25;;;;;;;9.50;86.20;97604.69;4439560;32;20474;-76
2020/12/11 04:40:25;;;;;;;10.50;5.82;;;;;;;9.51;86.58;97602.66;4442835;32;20049;-74
2020/12/11 04:42:51;;;;;;;10.93;6.35;;;;;;;9.64;86.24;97606.47;4439436;32;20445;-76
2020/12/11 04:45:17;;;;;;;11.30;6.37;;;;;;;9.75;86.49;97609.31;4442670;32;20476;-77
2020/12/11 04:47:44;;;;;;;9.68;6.03;;;;;;;9.77;85.94;97608.81;4439912;32;20036;-75
2020/12/11 04:50:12;;;;;;;12.75;6.70;;;;;;;9.87;85.52;97610.09;4439915;32;20126;-75
2020/12/11 04:52:41;;;;;;;10.75;6.55;;;;;;;9.91;84.94;97602.94;4443743;32;21267;-75
2020/12/11 04:55:13;;;;;;;12.85;6.60;;;;;;;9.93;85.28;97592.00;4442998;32;20021;-75
2020/12/11 04:57:44;;;;;;;12.05;6.00;;;;;;;9.93;84.89;97586.38;4441949;32;20085;-77
2020/12/11 05:00:10;;;;;;;7.30;5.15;;;;;;;9.93;83.58;97580.75;4441140;32;20038;-73
2020/12/11 05:02:39;;;;;;;9.60;5.30;;;;;;;9.90;83.71;97570.53;4444278;32;20426;-77
2020/12/11 05:05:05;;;;;;;9.40;5.18;;;;;;;9.80;84.53;97565.69;4445342;32;20096;-75
2020/12/11 05:07:30;;;;;;;8.30;5.25;;;;;;;9.82;84.83;97572.31;4444759;32;20108;-75
2020/12/11 05:09:57;;;;;;;6.37;4.60;;;;;;;9.85;84.48;97562.13;4440517;32;20331;-73
2020/12/11 05:12:24;;;;;;;8.73;5.40;;;;;;;9.88;83.59;97555.50;4439272;32;20097;-74
2020/12/11 05:14:59;;;;;;;8.98;5.65;;;;;;;9.85;84.11;97551.62;4439642;32;20101;-74
2020/12/11 05:17:28;;;;;;;9.35;5.50;;;;;;;9.87;83.78;97554.72;4440113;32;20045;-74
2020/12/11 05:19:55;;;;;;;9.00;5.50;;;;;;;9.75;84.55;97550.38;4440025;32;20072;-73
2020/12/11 05:22:23;;;;;;;11.75;6.40;;;;;;;9.71;84.68;97551.88;4444285;32;20085;-77
2020/12/11 05:24:52;;;;;;;9.77;6.07;;;;;;;9.68;85.47;97553.69;4428267;32;20138;-74
2020/12/11 05:27:39;;;;;;;11.05;5.93;;;;;;;9.78;85.52;97546.53;4442637;32;20064;-78
2020/12/11 05:35:29;;;;;;;10.63;6.65;;;;;;;10.31;83.74;97553.19;3986108;32;15022256;-74
2020/12/11 05:45:59;;;;;;;11.63;6.70;;;;;;;10.42;84.11;97544.72;3984883;32;15024970;-76
2020/12/11 05:48:36;;;;;;;12.98;7.60;;;;;;;10.42;84.11;97544.72;4437688;32;20369;-74
2020/12/11 05:51:16;;;;;;;13.25;7.72;;;;;;;10.09;85.32;97531.47;4439515;32;20029;-75
2020/12/11 05:53:43;;;;;;;15.80;7.53;;;;;;;10.19;85.17;97532.78;4419767;32;20592;-75
2020/12/11 05:56:09;;;;;;;13.95;7.60;;;;;;;10.25;85.42;97524.31;4424546;32;20418;-75
2020/12/11 05:58:34;;;;;;;12.05;6.87;;;;;;;10.28;84.79;97529.66;4425282;32;20017;-74
2020/12/11 06:01:00;;;;;;;13.57;7.95;;;;;;;10.35;84.61;97525.56;4423315;32;20033;-74
2020/12/11 06:03:27;;;;;;;14.27;8.05;;;;;;;10.38;84.80;97525.31;4425837;32;20459;-76
2020/12/11 06:05:58;;;;;;;14.52;8.18;;;;;;;10.37;84.65;97525.84;4423083;32;20138;-73
2020/12/11 06:08:26;;;;;;;15.88;8.10;;;;;;;10.49;84.96;97516.09;4420728;32;20065;-74
2020/12/11 06:10:52;;;;;;;17.00;9.15;;;;;;;10.59;84.46;97520.16;4419465;32;20366;-76
2020/12/11 06:13:35;;;;;;;15.90;7.93;;;;;;;10.63;84.54;97515.00;4417495;32;20038;-74
2020/12/11 06:16:04;;;;;;;17.05;9.27;;;;;;;10.75;84.26;97511.66;4428985;32;20421;-74
2020/12/11 06:18:34;;;;;;;19.58;10.45;;;;;;;10.75;83.62;97525.72;4423852;32;20509;-74
2020/12/11 06:21:01;;;;;;;20.37;10.10;;;;;;;10.79;83.14;97511.38;4422468;32;20395;-75
2020/12/11 06:23:29;;;;;;;19.42;9.80;;;;;;;10.74;83.13;97521.34;4423568;32;20066;-74
2020/12/11 06:28:41;;;;;;;20.00;10.02;;;;;;;11.08;82.12;97517.09;3981737;31;15712527;-75
2020/12/11 06:31:10;;;;;;;18.80;9.48;;;;;;;11.08;82.12;97517.09;4458711;32;20033;-73
2020/12/11 06:33:38;;;;;;;19.73;10.43;;;;;;;10.63;83.75;97518.59;4455820;32;20107;-73
2020/12/11 06:36:05;;;;;;;21.25;11.80;;;;;;;10.61;83.50;97523.22;4458360;32;20428;-73
2020/12/11 06:38:54;;;;;;;19.10;10.63;;;;;;;10.60;83.86;97510.41;4459943;32;20044;-74
2020/12/11 06:41:38;;;;;;;23.38;11.70;;;;;;;10.66;84.54;97513.97;4463130;32;20048;-72
2020/12/11 06:47:09;;;;;;;21.87;11.43;;;;;;;11.20;82.68;97503.75;4001544;31;15015648;-74
2020/12/11 06:49:37;;;;;;;21.58;11.32;;;;;;;11.20;82.68;97503.75;4450744;32;20448;-75
2020/12/11 06:57:31;;;;;;;22.27;11.90;;;;;;;11.09;83.03;97515.06;3985378;32;15022629;-72
2020/12/11 06:59:57;;;;;;;27.73;12.27;;;;;;;11.09;83.03;97515.06;4439110;32;20508;-72
2020/12/11 07:02:26;;;;;;;26.48;12.65;;;;;;;10.57;84.11;97511.44;4438616;32;20069;-73
2020/12/11 07:04:52;;;;;;;28.35;12.32;;;;;;;10.58;85.19;97505.31;4435972;32;20034;-72
2020/12/11 07:07:21;;;;;;;25.23;12.18;;;;;;;10.63;85.13;97510.16;4439398;32;20025;-75
2020/12/11 07:09:49;;;;;;;23.98;11.82;;;;;;;10.73;84.63;97505.00;4439155;32;20071;-73
2020/12/11 07:12:15;;;;;;;25.80;12.02;;;;;;;10.57;85.09;97509.41;4439508;32;20112;-73
2020/12/11 07:14:42;;;;;;;25.85;12.07;;;;;;;10.54;84.81;97507.63;4434878;32;20072;-75
2020/12/11 07:17:08;;;;;;;23.55;11.25;;;;;;;10.60;84.83;97511.19;4438695;32;20074;-75
2020/12/11 07:19:38;;;;;;;25.33;12.13;;;;;;;10.54;84.70;97504.81;4437440;32;20075;-73
2020/12/11 07:22:04;;;;;;;32.30;13.95;;;;;;;10.50;84.53;97498.72;4437591;32;20034;-74
2020/12/11 07:24:33;;;;;;;27.42;12.63;;;;;;;10.40;85.21;97494.63;4434129;32;20111;-74
2020/12/11 07:29:36;;;;;;;30.98;14.13;;;;;;;10.91;83.23;97508.00;3981380;32;15022309;-75
2020/12/11 07:32:02;;;;;;;28.60;12.48;;;;;;;10.91;83.23;97508.00;4436707;32;20052;-74
2020/12/11 07:34:29;;;;;;;28.35;13.20;;;;;;;10.59;84.48;97501.25;4432094;32;20080;-73
2020/12/11 07:36:57;;;;;;;28.23;13.15;;;;;;;10.50;84.03;97498.72;4429739;32;20066;-72
2020/12/11 07:39:26;;;;;;;27.48;12.73;;;;;;;10.48;84.14;97506.13;4434027;32;20042;-73
2020/12/11 07:41:52;;;;;;;27.48;12.50;;;;;;;10.65;84.33;97509.66;4428056;32;20080;-73
2020/12/11 07:44:24;;;;;;;23.73;11.12;;;;;;;10.46;84.06;97505.88;4427095;32;20026;-75
2020/12/11 07:46:51;;;;;;;29.08;12.10;;;;;;;10.57;83.92;97508.63;4428301;32;20138;-77
2020/12/11 07:49:16;;;;;;;32.58;12.70;;;;;;;10.58;83.67;97507.38;4423058;32;20081;-75
2020/12/11 07:51:45;;;;;;;32.42;13.30;;;;;;;10.49;84.08;97514.03;4430275;32;20084;-74
2020/12/11 07:54:11;;;;;;;28.40;11.85;;;;;;;10.46;83.59;97503.81;4426340;32;20143;-74
2020/12/11 07:56:37;;;;;;;30.77;12.95;;;;;;;10.38;84.33;97505.66;4427467;32;20060;-74
2020/12/11 07:59:09;;;;;;;28.73;12.20;;;;;;;10.42;84.01;97508.94;4428572;32;20084;-76
2020/12/11 08:01:35;;;;;;;33.90;13.30;;;;;;;10.45;84.59;97516.34;4426890;32;20519;-75
2020/12/11 08:04:00;;;;;;;31.00;12.98;;;;;;;10.44;83.94;97514.06;4425437;32;20088;-74
2020/12/11 08:06:26;;;;;;;33.95;12.90;;;;;;;10.46;84.70;97505.88;4426215;32;20034;-75
2020/12/11 08:08:52;;;;;;;30.92;13.70;;;;;;;10.62;84.64;97513.50;4426410;32;20414;-74
2020/12/11 08:11:25;;;;;;;33.92;13.57;;;;;;;10.68;84.93;97519.88;4430981;32;20020;-75
2020/12/11 08:14:08;;;;;;;37.00;14.90;;;;;;;10.75;84.18;97525.72;4423491;32;20083;-76
2020/12/11 08:16:34;;;;;;;39.80;14.20;;;;;;;10.87;84.32;97521.59;4428564;32;20061;-73
2020/12/11 08:19:01;;;;;;;29.42;13.52;;;;;;;10.94;84.23;97526.66;4423461;32;20110;-74
2020/12/11 08:21:31;;;;;;;36.83;14.18;;;;;;;11.01;83.28;97525.34;4426480;32;20072;-75
2020/12/11 08:23:57;;;;;;;29.63;13.50;;;;;;;11.16;83.02;97532.16;4424887;32;20013;-75
2020/12/11 08:26:25;;;;;;;31.25;12.90;;;;;;;11.24;82.33;97523.94;4430184;32;20069;-73
2020/12/11 08:29:05;;;;;;;32.28;12.35;;;;;;;11.31;82.17;97518.53;4429494;32;20052;-72
2020/12/11 08:31:38;;;;;;;30.90;11.48;;;;;;;11.41;82.09;97516.94;4427631;32;20133;-74
2020/12/11 08:36:46;;;;;;;28.92;13.00;;;;;;;11.85;80.08;97510.25;3977334;32;15032536;-75
2020/12/11 08:47:15;;;;;;;28.73;12.73;;;;;;;12.05;79.83;97509.78;3998770;31;15019516;-77
2020/12/11 08:49:45;;;;;;;30.73;13.10;;;;;;;12.05;79.83;97509.78;4462559;32;20083;-74
2020/12/11 08:52:11;;;;;;;35.38;13.68;;;;;;;11.61;79.94;97505.28;4460186;32;20025;-74
2020/12/11 08:54:37;;;;;;;31.87;13.00;;;;;;;11.37;80.22;97513.63;4462414;32;20152;-74
2020/12/11 08:57:03;;;;;;;31.17;14.15;;;;;;;11.44;80.81;97515.09;4450633;32;20507;-74
2020/12/11 08:59:28;;;;;;;31.12;12.60;;;;;;;11.42;80.60;97512.06;4461737;32;20517;-76
2020/12/11 09:01:54;;;;;;;30.60;12.37;;;;;;;11.32;80.94;97517.22;4458583;32;20484;-76
2020/12/11 09:04:20;;;;;;;32.33;13.18;;;;;;;11.40;81.57;97518.22;4463853;32;20096;-75
2020/12/11 09:06:46;;;;;;;27.55;12.23;;;;;;;11.41;81.11;97525.38;4465700;32;20495;-73
2020/12/11 09:09:11;;;;;;;30.17;12.32;;;;;;;11.51;81.38;97523.75;4464186;32;20033;-75
2020/12/11 09:11:37;;;;;;;37.05;12.85;;;;;;;11.50;80.89;97521.47;4463720;32;20488;-76
2020/12/11 09:14:03;;;;;;;31.52;12.30;;;;;;;11.55;80.88;97520.69;4461198;32;20096;-74
2020/12/11 09:16:28;;;;;;;34.40;14.70;;;;;;;11.59;80.99;97523.97;4460941;32;20041;-75
2020/12/11 09:18:54;;;;;;;34.72;13.27;;;;;;;11.64;81.25;97521.16;4465643;32;20080;-77
2020/12/11 09:21:20;;;;;;;33.53;13.38;;;;;;;11.69;80.85;97533.69;4465183;32;20067;-75
2020/12/11 09:23:45;;;;;;;31.77;12.88;;;;;;;11.65;80.50;97533.16;4462097;32;20219;-76
2020/12/11 09:26:12;;;;;;;30.52;13.00;;;;;;;11.58;80.66;97528.09;4461060;32;20059;-76
2020/12/11 09:28:40;;;;;;;33.72;13.88;;;;;;;11.59;80.68;97526.78;4446159;32;20103;-76
2020/12/11 09:31:06;;;;;;;37.33;13.75;;;;;;;11.58;80.55;97528.09;4464197;32;20136;-76
2020/12/11 09:33:36;;;;;;;37.47;14.73;;;;;;;11.43;81.73;97533.28;4462794;32;20068;-75
2020/12/11 09:36:03;;;;;;;42.08;15.10;;;;;;;11.22;82.04;97538.53;4449910;32;20084;-74
2020/12/11 09:38:29;;;;;;;45.63;15.80;;;;;;;11.36;82.64;97540.25;4462371;32;20028;-72
2020/12/11 09:41:00;;;;;;;42.47;16.05;;;;;;;11.07;82.42;97538.09;4461759;32;20417;-74
2020/12/11 09:46:53;;;;;;;43.75;15.20;;;;;;;11.52;83.11;97544.25;3981578;32;15024663;-72
2020/12/11 09:49:09;;;;;;;42.53;16.92;;;;;;;11.52;83.11;97544.25;4430197;32;20346;-73
2020/12/11 10:04:42;;;;;;;39.42;15.82;;;;;;;11.78;82.21;97553.03;4002410;31;15037776;-73
2020/12/11 10:07:07;;;;;;;43.28;16.08;;;;;;;11.78;82.21;97553.03;4458624;32;20069;-73
2020/12/11 10:09:33;;;;;;;45.78;16.10;;;;;;;11.34;82.74;97550.50;4458814;32;20100;-77
2020/12/11 10:12:02;;;;;;;48.87;16.35;;;;;;;11.24;83.73;97549.28;4460018;32;20091;-77
2020/12/11 10:17:06;;;;;;;41.03;15.18;;;;;;;11.34;83.59;97551.25;3987661;32;15026978;-75
2020/12/11 10:19:32;;;;;;;38.03;14.63;;;;;;;11.30;83.99;97545.16;4440846;32;20060;-72
2020/12/11 10:21:58;;;;;;;40.90;15.00;;;;;;;11.19;83.98;97545.19;4425906;32;20148;-73
2020/12/11 10:24:23;;;;;;;41.45;15.27;;;;;;;11.16;83.97;97548.28;4438088;32;20033;-75
2020/12/11 10:26:49;;;;;;;38.05;15.18;;;;;;;11.29;84.55;97542.88;4436708;32;20069;-72
2020/12/11 10:29:16;;;;;;;44.47;15.07;;;;;;;11.27;84.37;97537.75;4440365;32;20076;-76
2020/12/11 10:31:42;;;;;;;47.60;15.75;;;;;;;11.35;84.17;97533.09;4435685;32;20029;-74
2020/12/11 10:34:10;;;;;;;46.50;16.23;;;;;;;11.44;84.20;97534.81;4435747;32;20450;-73
2020/12/11 10:36:36;;;;;;;40.70;15.43;;;;;;;11.54;83.40;97539.59;4436397;32;20826;-73
2020/12/11 10:39:03;;;;;;;41.90;15.35;;;;;;;11.59;83.70;97535.22;4421591;32;20196;-74
2020/12/11 10:41:28;;;;;;;45.40;15.75;;;;;;;11.57;84.55;97532.94;4438144;32;20192;-75
2020/12/11 10:43:54;;;;;;;40.45;14.52;;;;;;;11.62;85.01;97534.22;4436813;32;20112;-72
2020/12/11 10:46:20;;;;;;;40.12;14.87;;;;;;;11.64;84.80;97538.06;4437930;32;20503;-73
2020/12/11 10:48:46;;;;;;;42.83;17.33;;;;;;;11.68;84.51;97537.75;4422121;32;20113;-71
2020/12/11 10:51:14;;;;;;;29.90;13.45;;;;;;;11.77;85.03;97534.62;4436112;32;20025;-75
2020/12/11 10:53:42;;;;;;;34.88;13.52;;;;;;;11.76;83.88;97538.72;4440744;32;20033;-71
2020/12/11 10:56:09;;;;;;;43.35;14.77;;;;;;;11.60;83.46;97533.97;4441163;32;21102;-70
2020/12/11 10:58:36;;;;;;;34.17;13.30;;;;;;;11.66;84.42;97529.84;4441944;32;20025;-72
2020/12/11 11:01:07;;;;;;;43.58;17.12;;;;;;;11.65;84.14;97530.34;4442045;32;20149;-74
2020/12/11 11:03:33;;;;;;;49.55;17.83;;;;;;;11.67;84.36;97537.00;4441891;32;20063;-71
2020/12/11 11:06:05;;;;;;;42.22;15.88;;;;;;;11.79;85.09;97540.50;4442680;32;20069;-72
2020/12/11 11:08:42;;;;;;;45.20;16.83;;;;;;;11.88;84.83;97529.66;4441456;32;20021;-73
2020/12/11 11:11:08;;;;;;;48.08;15.52;;;;;;;12.02;85.06;97527.75;4442155;32;20069;-74
2020/12/11 11:13:49;;;;;;;47.42;17.30;;;;;;;12.11;84.26;97535.88;4443105;32;20402;-73
2020/12/11 11:16:21;;;;;;;34.45;15.27;;;;;;;12.20;83.76;97526.31;4441604;32;20083;-72
2020/12/11 11:18:56;;;;;;;39.03;15.18;;;;;;;12.22;83.37;97530.16;4426712;32;20080;-76
2020/12/11 11:21:38;;;;;;;35.10;15.10;;;;;;;12.24;83.32;97526.81;4444081;32;20379;-74
2020/12/11 11:25:27;;;;;;;28.25;13.93;;;;;;;12.26;83.05;97527.03;4444106;32;20059;-75
2020/12/11 11:27:06;;;;;;;31.02;12.52;;;;;;;12.34;83.07;97520.28;4439389;32;20096;-73
2020/12/11 11:29:31;;;;;;;31.27;11.70;;;;;;;12.41;83.11;97521.75;4431313;32;20405;-76
2020/12/11 11:31:57;;;;;;;23.95;11.23;;;;;;;12.50;83.41;97522.19;4431502;32;20502;-77
2020/12/11 11:34:23;;;;;;;22.23;10.88;;;;;;;12.55;83.13;97521.34;4433482;32;20037;-79
2020/12/11 11:36:50;;;;;;;20.65;9.75;;;;;;;12.53;80.57;97515.47;4428187;32;20399;-75
2020/12/11 11:39:16;;;;;;;19.42;9.70;;;;;;;12.55;80.94;97523.41;4431207;32;20029;-77
2020/12/11 11:41:47;;;;;;;20.48;9.50;;;;;;;12.50;80.23;97519.34;4433946;32;20411;-76
2020/12/11 11:46:59;;;;;;;23.65;10.00;;;;;;;13.04;80.10;97525.66;3953162;32;15725705;-76
2020/12/11 11:54:49;;;;;;;18.87;8.73;;;;;;;13.24;79.21;97511.03;4445125;32;20094;-74
2020/12/11 11:57:15;;;;;;;14.65;7.93;;;;;;;12.91;81.13;97507.84;4447195;32;20088;-75
2020/12/11 11:59:42;;;;;;;15.85;7.30;;;;;;;12.92;79.13;97507.31;4446753;32;20182;-77
2020/12/11 12:02:08;;;;;;;17.17;8.77;;;;;;;12.93;79.16;97502.44;4450309;32;20167;-75
2020/12/11 12:04:34;;;;;;;18.77;8.48;;;;;;;12.64;78.95;97506.13;4445690;32;20084;-75
2020/12/11 12:06:59;;;;;;;19.02;9.48;;;;;;;12.70;79.80;97496.28;4451364;32;20105;-73
2020/12/11 12:09:25;;;;;;;17.25;8.68;;;;;;;12.68;80.04;97501.72;4449729;32;20194;-75
2020/12/11 12:11:51;;;;;;;21.15;9.32;;;;;;;12.49;79.97;97498.06;4451127;32;20692;-72
2020/12/11 12:14:17;;;;;;;21.10;9.18;;;;;;;12.54;80.37;97494.44;4449022;32;20041;-73
2020/12/11 12:16:44;;;;;;;22.02;11.05;;;;;;;12.56;80.39;97503.13;4452328;32;20084;-75
2020/12/11 12:19:13;;;;;;;25.83;11.35;;;;;;;12.61;81.00;97496.66;4434796;32;20030;-75
2020/12/11 12:22:16;;;;;;;21.62;11.73;;;;;;;12.62;81.11;97488.97;4444330;32;20098;-76
2020/12/11 12:29:56;;;;;;;28.83;11.75;;;;;;;12.55;81.15;97493.13;4449314;32;19963;-75
2020/12/11 12:32:24;;;;;;;28.45;13.60;;;;;;;12.51;81.92;97492.66;4451656;32;20089;-76
2020/12/11 12:34:57;;;;;;;25.37;12.00;;;;;;;12.51;81.95;97492.66;4448676;32;20076;-77
2020/12/11 12:40:47;;;;;;;25.42;12.63;;;;;;;12.52;81.84;97502.66;3992364;31;15022098;-76
2020/12/11 12:43:15;;;;;;;22.83;10.95;;;;;;;12.38;81.76;97509.47;4456246;32;21368;-74